createdAt,value
2023-01-15T00:02:12.974Z,7.40
2023-01-15T00:05:08.586Z,7.50
2023-01-15T00:10:45.372Z,8.10
2023-01-15T00:13:38.097Z,7.50
2023-01-15T00:16:33.532Z,7.30
2023-01-15T00:19:47.433Z,9.80
2023-01-15T00:22:33.778Z,8.50
2023-01-15T00:25:43.814Z,8.40
2023-01-15T00:28:36.595Z,7.60
2023-01-15T00:31:30.300Z,7.90
2023-01-15T00:34:23.909Z,8.00
2023-01-15T00:37:17.405Z,7.20
2023-01-15T00:40:12.335Z,8.00
2023-01-15T00:43:05.202Z,7.40
2023-01-15T00:45:51.425Z,7.30
2023-01-15T00:48:44.204Z,7.30
2023-01-15T00:51:31.342Z,7.30
2023-01-15T00:54:24.236Z,7.30
2023-01-15T00:57:18.302Z,6.70
2023-01-15T01:00:13.393Z,7.50
2023-01-15T01:03:07.488Z,7.30
2023-01-15T01:06:04.906Z,7.20
2023-01-15T01:08:58.386Z,8.90
2023-01-15T01:11:52.251Z,9.70
2023-01-15T01:14:46.596Z,7.70
2023-01-15T01:17:40.360Z,7.90
2023-01-15T01:20:33.614Z,7.90
2023-01-15T01:23:27.490Z,7.60
2023-01-15T01:26:22.122Z,8.00
2023-01-15T01:29:17.940Z,7.70
2023-01-15T01:32:11.320Z,7.50
2023-01-15T01:35:04.647Z,7.50
2023-01-15T01:38:00.291Z,7.20
2023-01-15T01:40:53.612Z,7.70
2023-01-15T01:44:03.036Z,8.10
2023-01-15T01:46:51.673Z,8.10
2023-01-15T01:49:39.455Z,8.00
2023-01-15T01:52:38.134Z,8.50
2023-01-15T01:55:32.269Z,8.40
2023-01-15T01:58:30.018Z,9.80
2023-01-15T02:01:25.604Z,8.90
2023-01-15T02:04:19.825Z,7.70
2023-01-15T02:07:12.725Z,7.70
2023-01-15T02:09:57.817Z,6.40
2023-01-15T02:12:56.720Z,6.90
2023-01-15T02:15:56.837Z,7.10
2023-01-15T02:18:55.423Z,6.80
2023-01-15T02:21:54.188Z,6.30
2023-01-15T02:25:15.881Z,8.10
2023-01-15T02:28:18.096Z,7.80
2023-01-15T02:31:16.913Z,7.50
2023-01-15T02:34:14.962Z,8.10
2023-01-15T02:40:04.426Z,8.60
2023-01-15T02:42:59.226Z,8.70
2023-01-15T02:45:55.485Z,9.20
2023-01-15T02:48:53.928Z,9.60
2023-01-15T02:51:52.860Z,8.60
2023-01-15T02:54:42.128Z,8.10
2023-01-15T02:57:38.771Z,9.40
2023-01-15T03:00:39.649Z,8.50
2023-01-15T03:03:43.561Z,8.60
2023-01-15T03:06:42.864Z,8.90
2023-01-15T03:09:36.039Z,8.10
2023-01-15T03:12:32.232Z,8.30
2023-01-15T03:15:40.750Z,7.00
2023-01-15T03:18:56.568Z,8.90
2023-01-15T03:21:55.028Z,8.20
2023-01-15T03:24:52.582Z,8.00
2023-01-15T03:27:45.585Z,8.00
2023-01-15T03:30:38.992Z,8.00
2023-01-15T03:33:32.437Z,7.60
2023-01-15T03:36:25.248Z,7.40
2023-01-15T03:39:18.557Z,8.90
2023-01-15T03:42:21.575Z,7.30
2023-01-15T03:45:20.607Z,7.60
2023-01-15T03:48:20.812Z,7.30
2023-01-15T03:51:19.907Z,7.40
2023-01-15T03:54:23.052Z,6.70
2023-01-15T03:57:32.558Z,6.40
2023-01-15T04:00:31.676Z,7.00
2023-01-15T04:03:26.718Z,6.80
2023-01-15T04:06:22.608Z,6.70
2023-01-15T04:09:17.137Z,6.00
2023-01-15T04:12:11.351Z,5.80
2023-01-15T04:15:04.531Z,5.60
2023-01-15T04:17:57.563Z,6.40
2023-01-15T04:20:50.909Z,5.70
2023-01-15T04:23:44.522Z,6.00
2023-01-15T04:26:37.290Z,5.80
2023-01-15T04:29:29.266Z,6.20
2023-01-15T04:32:22.396Z,6.10
2023-01-15T04:35:16.080Z,6.40
2023-01-15T04:38:09.007Z,6.20
2023-01-15T04:41:23.000Z,6.40
2023-01-15T04:44:15.789Z,5.70
2023-01-15T04:47:09.100Z,6.40
2023-01-15T04:50:02.096Z,5.40
2023-01-15T04:52:55.202Z,5.70
2023-01-15T04:55:47.937Z,5.60
2023-01-15T04:58:40.772Z,6.20
2023-01-15T05:01:33.685Z,6.50
2023-01-15T05:04:26.574Z,6.00
2023-01-15T05:07:20.050Z,6.00
2023-01-15T05:10:13.871Z,6.30
2023-01-15T05:13:06.748Z,6.70
2023-01-15T05:16:21.240Z,6.90
2023-01-15T05:19:08.789Z,6.10
2023-01-15T05:22:02.154Z,6.00
2023-01-15T05:24:54.939Z,6.20
2023-01-15T05:27:47.670Z,6.10
2023-01-15T05:30:40.525Z,6.40
2023-01-15T05:33:33.268Z,6.20
2023-01-15T05:36:28.516Z,6.10
2023-01-15T05:39:21.315Z,6.20
2023-01-15T05:42:14.169Z,6.10
2023-01-15T05:45:08.434Z,5.70
2023-01-15T05:48:01.188Z,5.80
2023-01-15T05:50:53.899Z,6.00
2023-01-15T05:53:37.649Z,6.30
2023-01-15T05:56:30.604Z,6.40
2023-01-15T05:59:25.507Z,5.70
2023-01-15T06:02:38.359Z,5.80
2023-01-15T06:05:32.259Z,6.60
2023-01-15T06:08:25.506Z,5.90
2023-01-15T06:11:12.462Z,6.30
2023-01-15T06:14:05.297Z,5.90
2023-01-15T06:16:46.731Z,6.20
2023-01-15T06:19:40.651Z,6.70
2023-01-15T06:22:33.650Z,6.60
2023-01-15T06:25:26.476Z,7.00
2023-01-15T06:28:19.549Z,6.60
2023-01-15T06:31:15.677Z,6.70
2023-01-15T06:34:01.127Z,7.00
2023-01-15T06:36:54.821Z,6.50
2023-01-15T06:39:47.615Z,7.50
2023-01-15T06:42:57.438Z,6.90
2023-01-15T06:46:22.166Z,6.40
2023-01-15T06:48:55.475Z,7.40
2023-01-15T06:51:48.264Z,6.50
2023-01-15T06:54:34.081Z,7.00
2023-01-15T06:57:29.302Z,7.30
2023-01-15T07:00:23.355Z,7.50
2023-01-15T07:03:09.093Z,8.60
2023-01-15T07:06:06.710Z,7.60
2023-01-15T07:08:52.156Z,6.80
2023-01-15T07:11:50.636Z,7.60
2023-01-15T07:14:43.455Z,10.00
2023-01-15T07:17:36.400Z,8.00
2023-01-15T07:20:29.437Z,8.00
2023-01-15T07:23:05.083Z,8.40
2023-01-15T07:25:40.065Z,8.00
2023-01-15T07:28:32.811Z,7.90
2023-01-15T07:31:25.549Z,7.70
2023-01-15T07:34:18.697Z,7.30
2023-01-15T07:37:11.995Z,7.30
2023-01-15T07:39:58.078Z,6.90
2023-01-15T07:43:08.257Z,7.60
2023-01-15T07:46:18.653Z,7.70
2023-01-15T07:49:24.728Z,7.60
2023-01-15T07:52:19.895Z,7.80
2023-01-15T07:55:13.922Z,7.90
2023-01-15T07:58:07.160Z,7.20
2023-01-15T08:01:00.462Z,7.00
2023-01-15T08:03:53.859Z,7.90
2023-01-15T08:06:46.748Z,6.70
2023-01-15T08:09:39.863Z,7.10
2023-01-15T08:12:50.416Z,6.80
2023-01-15T08:15:45.623Z,6.60
2023-01-15T08:18:31.368Z,7.00
2023-01-15T08:21:23.789Z,7.30
2023-01-15T08:24:16.597Z,6.80
2023-01-15T08:27:09.535Z,6.80
2023-01-15T08:30:02.613Z,7.50
2023-01-15T08:33:00.386Z,6.70
2023-01-15T08:35:47.079Z,6.70
2023-01-15T08:38:38.758Z,6.80
2023-01-15T08:41:30.492Z,6.60
2023-01-15T08:44:23.930Z,7.00
2023-01-15T08:49:55.256Z,6.90
2023-01-15T08:52:50.291Z,6.50
2023-01-15T08:55:41.914Z,6.80
2023-01-15T08:58:31.854Z,7.00
2023-01-15T09:01:10.110Z,6.80
2023-01-15T09:04:02.086Z,7.00
2023-01-15T09:06:55.651Z,7.20
2023-01-15T09:09:39.618Z,6.90
2023-01-15T09:12:31.709Z,12.60
2023-01-15T09:15:19.262Z,9.10
2023-01-15T09:18:13.165Z,10.80
2023-01-15T09:20:58.028Z,7.30
2023-01-15T09:23:50.964Z,7.90
2023-01-15T09:26:44.061Z,12.30
2023-01-15T09:29:37.048Z,11.70
2023-01-15T09:32:17.799Z,9.60
2023-01-15T09:35:05.936Z,9.90
2023-01-15T09:38:00.993Z,6.40
2023-01-15T09:43:51.082Z,7.50
2023-01-15T09:46:47.571Z,9.60
2023-01-15T09:49:59.107Z,10.60
2023-01-15T09:53:12.130Z,11.40
2023-01-15T09:56:06.164Z,10.70
2023-01-15T09:59:01.164Z,7.90
2023-01-15T10:01:55.146Z,10.40
2023-01-15T10:04:53.645Z,11.20
2023-01-15T10:07:36.017Z,23.30
2023-01-15T10:10:34.130Z,7.30
2023-01-15T10:13:28.947Z,19.60
2023-01-15T10:16:23.387Z,8.70
2023-01-15T10:19:12.091Z,5.30
2023-01-15T10:22:12.909Z,22.10
2023-01-15T10:24:59.935Z,10.60
2023-01-15T10:27:54.805Z,9.80
2023-01-15T10:30:49.037Z,20.70
2023-01-15T10:33:39.728Z,16.40
2023-01-15T10:36:22.961Z,6.20
2023-01-15T10:39:24.267Z,5.40
2023-01-15T10:42:33.153Z,11.80
2023-01-15T10:45:30.005Z,13.10
2023-01-15T10:48:23.155Z,8.60
2023-01-15T10:51:19.205Z,7.60
2023-01-15T10:54:09.341Z,8.70
2023-01-15T10:57:11.728Z,8.70
2023-01-15T11:00:08.755Z,14.50
2023-01-15T11:03:07.683Z,8.50
2023-01-15T11:06:02.281Z,8.40
2023-01-15T11:09:12.856Z,9.40
2023-01-15T11:12:41.027Z,10.30
2023-01-15T11:15:51.835Z,7.80
2023-01-15T11:19:04.461Z,7.00
2023-01-15T11:21:58.082Z,7.10
2023-01-15T11:25:01.123Z,6.10
2023-01-15T11:27:56.673Z,7.40
2023-01-15T11:30:56.512Z,6.70
2023-01-15T11:33:47.065Z,7.50
2023-01-15T11:36:40.068Z,9.70
2023-01-15T11:39:33.550Z,12.10
2023-01-15T11:42:37.722Z,9.80
2023-01-15T11:45:47.785Z,8.90
2023-01-15T11:48:48.028Z,6.60
2023-01-15T11:51:23.912Z,6.40
2023-01-15T11:54:19.245Z,5.80
2023-01-15T11:57:13.372Z,7.20
2023-01-15T11:59:53.335Z,7.50
2023-01-15T12:02:38.466Z,9.20
2023-01-15T12:05:20.848Z,9.10
2023-01-15T12:08:25.081Z,9.20
2023-01-15T12:11:46.418Z,5.50
2023-01-15T12:14:54.641Z,7.00
2023-01-15T12:18:07.663Z,13.80
2023-01-15T12:21:04.709Z,9.20
2023-01-15T12:24:14.521Z,16.90
2023-01-15T12:27:24.710Z,11.00
2023-01-15T12:30:20.880Z,7.40
2023-01-15T12:33:37.206Z,5.60
2023-01-15T12:36:33.757Z,5.70
2023-01-15T12:39:32.176Z,8.70
2023-01-15T12:42:44.273Z,7.70
2023-01-15T12:45:41.549Z,6.00
2023-01-15T12:48:41.023Z,3.90
2023-01-15T12:51:28.811Z,4.30
2023-01-15T12:54:30.944Z,5.40
2023-01-15T12:57:32.607Z,11.10
2023-01-15T13:00:33.154Z,4.40
2023-01-15T13:03:30.333Z,4.20
2023-01-15T13:06:28.827Z,4.30
2023-01-15T13:09:10.584Z,6.50
2023-01-15T13:12:04.971Z,8.60
2023-01-15T13:14:58.303Z,6.50
2023-01-15T13:20:48.916Z,5.50
2023-01-15T13:24:02.894Z,19.00
2023-01-15T13:27:12.198Z,9.70
2023-01-15T13:30:16.947Z,8.40
2023-01-15T13:33:18.042Z,6.00
2023-01-15T13:35:53.618Z,5.40
2023-01-15T13:38:32.409Z,7.60
2023-01-15T13:41:12.247Z,7.70
2023-01-15T13:44:04.304Z,8.50
2023-01-15T13:47:06.466Z,7.40
2023-01-15T13:49:51.007Z,7.30
2023-01-15T13:52:44.168Z,6.70
2023-01-15T13:55:33.633Z,10.30
2023-01-15T13:58:27.441Z,11.40
2023-01-15T14:01:34.210Z,13.80
2023-01-15T14:04:39.047Z,7.50
2023-01-15T14:07:38.572Z,7.20
2023-01-15T14:10:34.950Z,9.00
2023-01-15T14:13:54.996Z,6.70
2023-01-15T14:17:00.157Z,8.80
2023-01-15T14:20:22.273Z,13.60
2023-01-15T14:23:40.011Z,8.80
2023-01-15T14:26:33.785Z,12.40
2023-01-15T14:29:47.215Z,9.00
2023-01-15T14:32:54.300Z,14.70
2023-01-15T14:35:50.587Z,10.80
2023-01-15T14:38:52.752Z,9.80
2023-01-15T14:41:59.973Z,11.30
2023-01-15T14:45:03.297Z,11.00
2023-01-15T14:47:58.008Z,13.70
2023-01-15T14:50:52.795Z,26.00
2023-01-15T14:53:49.809Z,19.70
2023-01-15T14:56:47.758Z,11.20
2023-01-15T14:59:50.101Z,11.60
2023-01-15T15:02:40.400Z,25.20
2023-01-15T15:05:36.599Z,16.90
2023-01-15T15:08:34.020Z,12.10
2023-01-15T15:11:52.947Z,11.80
2023-01-15T15:14:27.756Z,10.00
2023-01-15T15:17:31.105Z,12.60
2023-01-15T15:20:31.561Z,11.10
2023-01-15T15:23:29.946Z,9.20
2023-01-15T15:26:28.485Z,9.40
2023-01-15T15:29:22.614Z,9.80
2023-01-15T15:32:19.106Z,9.90
2023-01-15T15:35:27.578Z,9.90
2023-01-15T15:38:20.889Z,9.80
2023-01-15T15:44:04.740Z,10.10
2023-01-15T15:47:14.888Z,11.10
2023-01-15T15:50:08.991Z,11.80
2023-01-15T15:53:04.625Z,9.40
2023-01-15T15:55:59.175Z,11.30
2023-01-15T15:58:52.244Z,11.70
2023-01-15T16:01:45.637Z,10.20
2023-01-15T16:04:38.502Z,9.90
2023-01-15T16:07:33.843Z,10.30
2023-01-15T16:10:21.041Z,10.00
2023-01-15T16:12:57.755Z,10.40
2023-01-15T16:15:35.891Z,11.60
2023-01-15T16:18:25.485Z,10.50
2023-01-15T16:21:03.003Z,12.00
2023-01-15T16:24:03.726Z,10.80
2023-01-15T16:26:50.759Z,10.10
2023-01-15T16:29:48.913Z,10.00
2023-01-15T16:35:27.103Z,10.00
2023-01-15T16:38:24.273Z,9.40
2023-01-15T16:41:27.629Z,9.80
2023-01-15T16:44:37.832Z,8.70
2023-01-15T16:47:26.592Z,9.70
2023-01-15T16:50:32.428Z,8.70
2023-01-15T16:53:41.291Z,8.50
2023-01-15T16:56:54.848Z,9.10
2023-01-15T17:00:00.583Z,9.50
2023-01-15T17:02:48.692Z,9.60
2023-01-15T17:05:41.852Z,10.10
2023-01-15T17:08:32.513Z,9.10
2023-01-15T17:11:07.617Z,9.00
2023-01-15T17:13:51.800Z,8.80
2023-01-15T17:16:46.514Z,7.80
2023-01-15T17:19:39.360Z,9.20
2023-01-15T17:22:26.678Z,8.30
2023-01-15T17:25:28.003Z,8.70
2023-01-15T17:28:13.392Z,8.70
2023-01-15T17:31:06.397Z,9.30
2023-01-15T17:33:59.184Z,9.50
2023-01-15T17:36:51.937Z,10.10
2023-01-15T17:39:44.099Z,9.50
2023-01-15T17:42:36.874Z,9.40
2023-01-15T17:45:31.469Z,9.30
2023-01-15T17:48:24.270Z,8.80
2023-01-15T17:51:18.671Z,9.50
2023-01-15T17:54:11.447Z,8.40
2023-01-15T17:57:01.193Z,9.00
2023-01-15T18:00:11.616Z,8.50
2023-01-15T18:03:23.930Z,8.50
2023-01-15T18:06:11.292Z,10.30
2023-01-15T18:09:08.946Z,8.90
2023-01-15T18:12:01.851Z,10.10
2023-01-15T18:14:54.822Z,9.20
2023-01-15T18:17:47.926Z,7.80
2023-01-15T18:20:33.936Z,9.40
2023-01-15T18:23:27.166Z,9.30
2023-01-15T18:26:21.223Z,10.00
2023-01-15T18:29:06.837Z,9.30
2023-01-15T18:31:59.841Z,9.00
2023-01-15T18:34:34.927Z,9.30
2023-01-15T18:37:08.427Z,9.40
2023-01-15T18:40:01.381Z,9.50
2023-01-15T18:43:14.074Z,8.40
2023-01-15T18:46:27.664Z,8.70
2023-01-15T18:49:38.790Z,9.10
2023-01-15T18:52:42.068Z,10.90
2023-01-15T18:55:34.943Z,9.80
2023-01-15T18:58:21.925Z,9.20
2023-01-15T19:01:14.961Z,9.80
2023-01-15T19:04:22.362Z,9.10
2023-01-15T19:07:15.226Z,9.20
2023-01-15T19:10:09.766Z,11.40
2023-01-15T19:13:03.493Z,9.10
2023-01-15T19:16:11.024Z,9.30
2023-01-15T19:19:04.015Z,9.60
2023-01-15T19:22:35.119Z,8.00
2023-01-15T19:25:30.382Z,8.20
2023-01-15T19:28:17.938Z,9.00
2023-01-15T19:31:29.542Z,8.30
2023-01-15T19:34:33.532Z,7.40
2023-01-15T19:37:20.526Z,8.20
2023-01-15T19:39:56.281Z,7.40
2023-01-15T19:43:07.208Z,7.60
2023-01-15T19:46:17.298Z,8.60
2023-01-15T19:49:35.883Z,8.00
2023-01-15T19:52:38.687Z,7.60
2023-01-15T19:55:33.216Z,7.00
2023-01-15T19:58:26.082Z,6.60
2023-01-15T20:01:19.511Z,7.10
2023-01-15T20:04:15.048Z,7.30
2023-01-15T20:07:08.946Z,7.50
2023-01-15T20:10:03.104Z,7.10
2023-01-15T20:13:07.076Z,6.90
2023-01-15T20:16:01.975Z,7.00
2023-01-15T20:18:51.974Z,6.50
2023-01-15T20:21:58.949Z,7.40
2023-01-15T20:24:51.751Z,5.90
2023-01-15T20:27:44.708Z,5.90
2023-01-15T20:30:37.511Z,4.70
2023-01-15T20:33:30.347Z,4.80
2023-01-15T20:36:24.131Z,4.10
2023-01-15T20:39:18.413Z,4.50
2023-01-15T20:42:30.067Z,5.10
2023-01-15T20:45:24.546Z,5.10
2023-01-15T20:48:34.361Z,8.70
2023-01-15T20:51:29.654Z,4.30
2023-01-15T20:54:02.320Z,4.10
2023-01-15T20:56:55.584Z,3.90
2023-01-15T20:59:48.403Z,3.80
2023-01-15T21:02:42.419Z,3.30
2023-01-15T21:05:29.392Z,3.80
2023-01-15T21:08:21.716Z,4.00
2023-01-15T21:10:56.611Z,5.10
2023-01-15T21:13:32.262Z,4.20
2023-01-15T21:16:25.315Z,3.90
2023-01-15T21:19:18.130Z,4.40
2023-01-15T21:22:11.204Z,4.30
2023-01-15T21:24:54.602Z,3.40
2023-01-15T21:27:47.926Z,3.60
2023-01-15T21:30:42.584Z,3.60
2023-01-15T21:33:35.446Z,3.10
2023-01-15T21:36:21.455Z,4.40
2023-01-15T21:39:19.125Z,4.20
2023-01-15T21:42:34.389Z,4.30
2023-01-15T21:45:28.716Z,9.20
2023-01-15T21:48:04.364Z,4.70
2023-01-15T21:50:55.967Z,5.50
2023-01-15T21:53:48.862Z,4.60
2023-01-15T21:56:41.877Z,5.60
2023-01-15T21:59:35.593Z,5.60
2023-01-15T22:02:23.343Z,5.10
2023-01-15T22:05:20.120Z,4.60
2023-01-15T22:08:19.505Z,4.40
2023-01-15T22:11:13.730Z,4.00
2023-01-15T22:14:06.579Z,4.40
2023-01-15T22:17:02.109Z,4.20
2023-01-15T22:19:55.206Z,4.80
2023-01-15T22:22:48.898Z,4.10
2023-01-15T22:25:43.430Z,4.40
2023-01-15T22:28:36.312Z,3.80
2023-01-15T22:31:28.250Z,3.00
2023-01-15T22:34:22.591Z,3.50
2023-01-15T22:37:08.551Z,3.50
2023-01-15T22:40:05.143Z,4.50
2023-01-15T22:42:56.661Z,7.10
2023-01-15T22:45:41.268Z,5.40
2023-01-15T22:48:25.690Z,5.40
2023-01-15T22:51:12.744Z,4.80
2023-01-15T22:53:59.815Z,4.30
2023-01-15T22:56:54.661Z,4.70
2023-01-15T22:59:47.915Z,3.60
2023-01-15T23:02:56.088Z,4.10
2023-01-15T23:05:48.999Z,4.50
2023-01-15T23:08:42.042Z,4.50
2023-01-15T23:11:34.906Z,4.20
2023-01-15T23:14:22.887Z,3.90
2023-01-15T23:17:15.761Z,3.20
2023-01-15T23:20:12.109Z,3.20
2023-01-15T23:23:04.997Z,3.40
2023-01-15T23:25:57.792Z,3.20
2023-01-15T23:28:43.303Z,3.20
2023-01-15T23:31:37.007Z,3.10
2023-01-15T23:34:29.852Z,12.70
2023-01-15T23:37:22.900Z,4.50
2023-01-15T23:40:16.755Z,3.90
2023-01-15T23:43:28.459Z,2.80
2023-01-15T23:46:35.523Z,3.20
2023-01-15T23:49:21.177Z,2.70
2023-01-15T23:52:15.590Z,3.10
2023-01-15T23:55:09.130Z,3.00
2023-01-15T23:58:02.801Z,3.10
